Latest Weather Observations for Warburto Point

IDS60801

Issued at 12:31 am CDT Monday 26 January 2015 (issued every 30 minutes, with the page automatically refreshed every 10 minutes)

About weather observations | Map of weather stations | Latest weather observations for SA | Other Formats
Station Details ID: 022053 Name: WARBURTO POINT Lat: -34.00 Lon: 137.53 Height: 1.0 m
Data from the previous 72 hours. | See also: Recent months for locations in South Australia
Date/Time
CDT
Temp
°C
App
Temp
°C
Dew
Point
Rel
Hum
%
Delta-T
°C
Wind Press
QNH
hPa
Press
MSL
hPa
Rain
since 9 am
mm
Dir
 
Spd
km/h
Gust
km/h
Spd
kts
Gust
kts
26/12:30am - - - - - SSE 26 32 14 17 - - -
26/12:00am - - - - - SSE 26 32 14 17 - - -
 
Date/Time
CDT
Temp
°C
App
Temp
°C
Dew
Point
Rel
Hum
%
Delta-T
°C
Wind Press
QNH
hPa
Press
MSL
hPa
Rain
since 9 am
mm
Dir
 
Spd
km/h
Gust
km/h
Spd
kts
Gust
kts
25/11:30pm - - - - - S 28 35 15 19 - - -
25/11:00pm - - - - - S 32 37 17 20 - - -
25/10:30pm - - - - - SSE 30 39 16 21 - - -
25/10:25pm - - - - - S 32 50 17 27 - - -
25/10:00pm - - - - - SSW 35 44 19 24 - - -
25/09:30pm - - - - - SSW 35 46 19 25 - - -
25/09:00pm - - - - - SSW 35 46 19 25 - - -
25/08:30pm - - - - - SSW 35 43 19 23 - - -
25/08:00pm - - - - - SSW 37 48 20 26 - - -
25/07:30pm - - - - - SSW 33 41 18 22 - - -
25/07:00pm - - - - - SW 32 41 17 22 - - -
25/06:30pm - - - - - SW 33 43 18 23 - - -
25/06:00pm - - - - - SW 33 44 18 24 - - -
25/05:30pm - - - - - SW 35 44 19 24 - - -
25/05:00pm - - - - - SW 35 43 19 23 - - -
25/04:30pm - - - - - SW 33 46 18 25 - - -
25/04:00pm - - - - - SW 32 41 17 22 - - -
25/03:30pm - - - - - SW 35 44 19 24 - - -
25/03:00pm - - - - - SSW 35 44 19 24 - - -
25/02:30pm - - - - - SSW 35 44 19 24 - - -
25/02:00pm - - - - - SSW 35 46 19 25 - - -
25/01:30pm - - - - - SSW 33 41 18 22 - - -
25/01:00pm - - - - - SSW 32 39 17 21 - - -
25/12:30pm - - - - - SSW 28 35 15 19 - - -
25/12:00pm - - - - - SW 28 37 15 20 - - -
25/11:30am - - - - - SSW 33 48 18 26 - - -
25/11:00am - - - - - SSW 30 39 16 21 - - -
25/10:30am - - - - - SSW 20 33 11 18 - - -
25/10:00am - - - - - SSW 26 32 14 17 - - -
25/09:30am - - - - - SSW 22 32 12 17 - - -
25/09:00am - - - - - SW 19 28 10 15 - - -
25/08:30am - - - - - SSW 19 28 10 15 - - -
25/08:00am - - - - - SE 17 22 9 12 - - -
25/07:30am - - - - - SSE 22 28 12 15 - - -
25/07:00am - - - - - SSE 26 32 14 17 - - -
25/06:30am - - - - - SSE 26 33 14 18 - - -
25/06:00am - - - - - S 26 37 14 20 - - -
25/05:30am - - - - - SSW 28 37 15 20 - - -
25/05:00am - - - - - SSW 30 39 16 21 - - -
25/04:30am - - - - - SSW 32 39 17 21 - - -
25/04:00am - - - - - SSW 32 41 17 22 - - -
25/03:30am - - - - - SSW 33 44 18 24 - - -
25/03:00am - - - - - SSW 35 46 19 25 - - -
25/02:30am - - - - - SSW 35 50 19 27 - - -
25/02:00am - - - - - SSW 35 48 19 26 - - -
25/01:30am - - - - - SSW 33 43 18 23 - - -
25/01:00am - - - - - SSW 37 50 20 27 - - -
25/12:30am - - - - - SSW 35 48 19 26 - - -
25/12:00am - - - - - SSW 33 48 18 26 - - -
 
Date/Time
CDT
Temp
°C
App
Temp
°C
Dew
Point
Rel
Hum
%
Delta-T
°C
Wind Press
QNH
hPa
Press
MSL
hPa
Rain
since 9 am
mm
Dir
 
Spd
km/h
Gust
km/h
Spd
kts
Gust
kts
24/11:30pm - - - - - SW 33 46 18 25 - - -
24/11:22pm - - - - - SW 37 56 20 30 - - -
24/11:00pm - - - - - SW 35 50 19 27 - - -
24/10:30pm - - - - - SW 39 50 21 27 - - -
24/10:00pm - - - - - SW 44 56 24 30 - - -
24/09:37pm - - - - - SW 37 59 20 32 - - -
24/09:30pm - - - - - SW 35 43 19 23 - - -
24/09:00pm - - - - - SW 35 44 19 24 - - -
24/08:30pm - - - - - SW 35 43 19 23 - - -
24/08:00pm - - - - - SW 35 48 19 26 - - -
24/07:30pm - - - - - SSW 28 33 15 18 - - -
24/07:00pm - - - - - SW 30 39 16 21 - - -
24/06:30pm - - - - - SW 32 43 17 23 - - -
24/06:00pm - - - - - SSW 26 33 14 18 - - -
24/05:30pm - - - - - SSW 24 30 13 16 - - -
24/05:00pm - - - - - SSW 28 35 15 19 - - -
24/04:30pm - - - - - SSW 28 35 15 19 - - -
24/04:00pm - - - - - SSW 24 33 13 18 - - -
24/03:30pm - - - - - SSW 24 32 13 17 - - -
24/03:00pm - - - - - SSW 22 30 12 16 - - -
24/02:30pm - - - - - SSW 20 28 11 15 - - -
24/02:00pm - - - - - SSW 20 28 11 15 - - -
24/01:30pm - - - - - SW 22 28 12 15 - - -
24/01:00pm - - - - - SW 20 30 11 16 - - -
24/12:30pm - - - - - SW 20 30 11 16 - - -
24/12:00pm - - - - - SW 19 26 10 14 - - -
24/11:30am - - - - - WSW 17 20 9 11 - - -
24/11:00am - - - - - WSW 19 24 10 13 - - -
24/10:30am - - - - - WSW 17 22 9 12 - - -
24/10:00am - - - - - WSW 20 26 11 14 - - -
24/09:30am - - - - - SW 15 20 8 11 - - -
24/09:00am - - - - - WSW 19 26 10 14 - - -
24/08:30am - - - - - WSW 17 20 9 11 - - -
24/08:00am - - - - - SW 17 24 9 13 - - -
24/07:30am - - - - - SW 17 20 9 11 - - -
24/07:00am - - - - - SW 19 26 10 14 - - -
24/06:30am - - - - - SW 20 28 11 15 - - -
24/06:00am - - - - - SW 19 24 10 13 - - -
24/05:30am - - - - - SW 17 24 9 13 - - -
24/05:00am - - - - - SW 20 28 11 15 - - -
24/04:30am - - - - - SW 19 26 10 14 - - -
24/04:00am - - - - - SW 20 30 11 16 - - -
24/03:30am - - - - - SW 17 24 9 13 - - -
24/03:00am - - - - - S 11 17 6 9 - - -
24/02:30am - - - - - SSE 13 17 7 9 - - -
24/02:00am - - - - - S 13 17 7 9 - - -
24/01:30am - - - - - SSE 13 17 7 9 - - -
24/01:00am - - - - - SSE 15 19 8 10 - - -
24/12:30am - - - - - S 19 26 10 14 - - -
24/12:00am - - - - - S 24 30 13 16 - - -
 
Date/Time
CDT
Temp
°C
App
Temp
°C
Dew
Point
Rel
Hum
%
Delta-T
°C
Wind Press
QNH
hPa
Press
MSL
hPa
Rain
since 9 am
mm
Dir
 
Spd
km/h
Gust
km/h
Spd
kts
Gust
kts
23/11:30pm - - - - - SSW 28 33 15 18 - - -
23/11:00pm - - - - - SSW 30 35 16 19 - - -
23/10:30pm - - - - - S 32 37 17 20 - - -
23/10:00pm - - - - - SSW 32 39 17 21 - - -
23/09:30pm - - - - - SSW 32 37 17 20 - - -
23/09:00pm - - - - - SSW 32 37 17 20 - - -
23/08:30pm - - - - - SSW 28 35 15 19 - - -
23/08:00pm - - - - - SSW 28 37 15 20 - - -
23/07:30pm - - - - - SSW 28 33 15 18 - - -
23/07:00pm - - - - - SSW 30 37 16 20 - - -
23/06:30pm - - - - - SSW 30 39 16 21 - - -
23/06:00pm - - - - - SSW 33 39 18 21 - - -
23/05:30pm - - - - - SSW 33 41 18 22 - - -
23/05:00pm - - - - - SSW 30 37 16 20 - - -
23/04:30pm - - - - - SSW 32 37 17 20 - - -
23/04:00pm - - - - - SW 32 39 17 21 - - -
23/03:30pm - - - - - SW 30 37 16 20 - - -
23/03:00pm - - - - - SW 33 43 18 23 - - -
23/02:30pm - - - - - SW 32 39 17 21 - - -
23/02:00pm - - - - - SW 28 33 15 18 - - -
23/01:30pm - - - - - SW 28 37 15 20 - - -
23/01:00pm - - - - - SW 32 39 17 21 - - -
23/12:30pm - - - - - SW 32 37 17 20 - - -
23/12:00pm - - - - - SSW 28 33 15 18 - - -
23/11:30am - - - - - SSW 28 33 15 18 - - -
23/11:00am - - - - - SSW 30 39 16 21 - - -
23/10:30am - - - - - SSW 35 44 19 24 - - -
23/10:00am - - - - - SSW 30 37 16 20 - - -
23/09:30am - - - - - SSW 22 32 12 17 - - -
23/09:00am - - - - - SSW 24 32 13 17 - - -
23/08:30am - - - - - S 20 24 11 13 - - -
23/08:00am - - - - - SSE 17 20 9 11 - - -
23/07:30am - - - - - S 17 20 9 11 - - -
23/07:00am - - - - - S 17 20 9 11 - - -
23/06:30am - - - - - S 20 26 11 14 - - -
23/06:00am - - - - - S 24 32 13 17 - - -
23/05:30am - - - - - SSW 20 28 11 15 - - -
23/05:00am - - - - - S 19 24 10 13 - - -
23/04:30am - - - - - S 19 20 10 11 - - -
23/04:00am - - - - - S 19 24 10 13 - - -
23/03:30am - - - - - S 19 24 10 13 - - -
23/03:00am - - - - - S 20 26 11 14 - - -
23/02:30am - - - - - S 19 24 10 13 - - -
23/02:00am - - - - - S 15 19 8 10 - - -
23/01:30am - - - - - SSW 20 26 11 14 - - -
23/01:00am - - - - - S 26 32 14 17 - - -

Other Formats:

Comma delimited format used in spreadsheet applications
http://www.bom.gov.au/fwo/IDS60801/IDS60801.94666.axf

JavaScript Object Notation format (JSON) in row-major order
http://www.bom.gov.au/fwo/IDS60801/IDS60801.94666.json